OFK weather

Karl Stefan Memorial Airport
Norfolk, Nebraska, United States

Public forecast

Using degrees Fahrenheit for public forecast. Weather courtesy of forecast.io.

METAR (pilot weather report)

Retrieved 2019/07/23 14:56 UTC (16 minutes ago):

KOFK 231456Z AUTO 21008KT 10SM CLR 22/13 A3031 RMK AO2 SLP256 T02170133 58004 $

TAF (pilot weather forecast)

Retrieved 2019/07/23 12:22 UTC (3 hours ago):

TAF KOFK 231120Z 2312/2412 VRB03KT P6SM FEW150 TEMPO 2312/2314 5SM BR SCT050